createdAt,value
2019-03-15T00:02:43.567Z,18.40
2019-03-15T00:07:49.086Z,16.53
2019-03-15T00:12:54.576Z,17.17
2019-03-15T00:18:00.136Z,22.67
2019-03-15T00:23:05.866Z,16.10
2019-03-15T00:28:11.361Z,18.13
2019-03-15T00:33:16.934Z,18.07
2019-03-15T00:38:22.487Z,18.87
2019-03-15T00:43:28.069Z,17.03
2019-03-15T00:48:33.647Z,19.40
2019-03-15T00:53:39.206Z,14.67
2019-03-15T00:58:44.752Z,14.77
2019-03-15T01:03:50.340Z,18.33
2019-03-15T01:08:55.922Z,14.97
2019-03-15T01:14:01.493Z,24.07
2019-03-15T01:19:07.040Z,10.97
2019-03-15T01:24:12.512Z,16.37
2019-03-15T01:29:18.025Z,14.80
2019-03-15T01:34:23.599Z,11.77
2019-03-15T01:39:29.092Z,12.77
2019-03-15T01:44:34.621Z,11.17
2019-03-15T01:49:40.145Z,14.47
2019-03-15T01:54:45.657Z,13.07
2019-03-15T01:59:51.230Z,10.23
2019-03-15T02:04:57.627Z,10.73
2019-03-15T02:10:03.201Z,11.57
2019-03-15T02:15:09.708Z,11.20
2019-03-15T02:20:15.207Z,11.63
2019-03-15T02:25:20.719Z,12.30
2019-03-15T02:30:26.304Z,10.33
2019-03-15T02:35:31.834Z,14.87
2019-03-15T02:40:38.224Z,13.20
2019-03-15T02:45:43.835Z,13.27
2019-03-15T02:50:49.481Z,14.13
2019-03-15T02:55:55.004Z,12.03
2019-03-15T03:01:00.520Z,8.40
2019-03-15T03:06:06.045Z,8.90
2019-03-15T03:11:11.630Z,8.47
2019-03-15T03:16:18.558Z,7.33
2019-03-15T03:21:24.182Z,11.27
2019-03-15T03:26:29.633Z,7.27
2019-03-15T03:31:35.143Z,12.20
2019-03-15T03:36:40.592Z,10.50
2019-03-15T03:41:46.084Z,7.70
2019-03-15T03:46:52.523Z,14.03
2019-03-15T03:51:58.285Z,8.40
2019-03-15T03:57:03.767Z,10.37
2019-03-15T04:02:09.289Z,13.20
2019-03-15T04:07:14.831Z,7.70
2019-03-15T04:12:20.420Z,11.00
2019-03-15T04:17:25.890Z,9.13
2019-03-15T04:22:31.423Z,12.60
2019-03-15T04:27:36.881Z,11.00
2019-03-15T04:32:42.517Z,9.13
2019-03-15T04:37:48.060Z,14.27
2019-03-15T04:42:53.611Z,9.83
2019-03-15T04:47:59.247Z,14.90
2019-03-15T04:53:04.766Z,12.33
2019-03-15T04:58:10.228Z,20.97
2019-03-15T05:03:15.731Z,12.43
2019-03-15T05:08:21.218Z,15.07
2019-03-15T05:13:26.693Z,14.70
2019-03-15T05:18:32.192Z,11.83
2019-03-15T05:23:37.745Z,14.50
2019-03-15T05:28:43.247Z,13.70
2019-03-15T05:33:48.745Z,14.13
2019-03-15T05:38:59.651Z,14.57
2019-03-15T05:44:05.379Z,14.43
2019-03-15T05:49:10.891Z,21.57
2019-03-15T05:54:16.413Z,16.03
2019-03-15T05:59:21.954Z,16.43
2019-03-15T06:04:27.492Z,19.97
2019-03-15T06:09:32.986Z,13.27
2019-03-15T06:14:38.534Z,16.80
2019-03-15T06:19:44.050Z,15.50
2019-03-15T06:24:49.604Z,21.13
2019-03-15T06:29:55.130Z,12.77
2019-03-15T06:35:00.650Z,15.60
2019-03-15T06:40:06.341Z,12.67
2019-03-15T06:45:11.934Z,15.27
2019-03-15T06:50:17.452Z,15.47
2019-03-15T06:55:22.983Z,18.00
2019-03-15T07:00:28.510Z,13.67
2019-03-15T07:05:33.999Z,13.70
2019-03-15T07:10:39.499Z,17.40
2019-03-15T07:15:45.075Z,12.30
2019-03-15T07:20:50.687Z,9.57
2019-03-15T07:25:56.588Z,13.77
2019-03-15T07:31:02.078Z,13.50
2019-03-15T07:36:07.634Z,13.73
2019-03-15T07:41:13.098Z,12.83
2019-03-15T07:46:18.806Z,14.23
2019-03-15T07:51:24.288Z,12.80
2019-03-15T07:56:29.786Z,13.50
2019-03-15T08:01:35.285Z,11.07
2019-03-15T08:06:40.796Z,11.30
2019-03-15T08:11:46.290Z,10.67
2019-03-15T08:16:51.780Z,13.03
2019-03-15T08:21:57.348Z,9.83
2019-03-15T08:27:02.804Z,11.47
2019-03-15T08:32:08.319Z,9.50
2019-03-15T08:37:13.811Z,9.67
2019-03-15T08:42:19.273Z,10.37
2019-03-15T08:47:24.845Z,11.43
2019-03-15T08:52:30.349Z,8.33
2019-03-15T08:57:36.024Z,7.93
2019-03-15T09:02:41.547Z,10.33
2019-03-15T09:07:47.076Z,5.47
2019-03-15T09:12:52.658Z,2.20
2019-03-15T09:17:58.218Z,1.87
2019-03-15T09:23:03.899Z,3.27
2019-03-15T09:28:09.397Z,1.80
2019-03-15T09:33:14.956Z,2.17
2019-03-15T09:38:20.671Z,1.80
2019-03-15T09:43:26.177Z,3.10
2019-03-15T09:48:31.689Z,3.23
2019-03-15T09:53:37.224Z,1.20
2019-03-15T09:58:42.846Z,1.73
2019-03-15T10:03:48.317Z,2.57
2019-03-15T10:08:53.769Z,1.87
2019-03-15T10:14:02.153Z,2.47
2019-03-15T10:19:06.476Z,3.27
2019-03-15T10:24:15.728Z,2.57
2019-03-15T10:29:20.828Z,2.13
2019-03-15T10:34:26.293Z,3.53
2019-03-15T10:39:31.877Z,2.93
2019-03-15T10:44:37.468Z,5.43
2019-03-15T10:49:43.032Z,4.20
2019-03-15T10:54:48.528Z,2.67
2019-03-15T10:59:54.039Z,2.10
2019-03-15T11:04:59.533Z,4.17
2019-03-15T11:10:05.029Z,4.77
2019-03-15T11:15:10.655Z,5.10
2019-03-15T11:20:16.115Z,4.10
2019-03-15T11:25:21.638Z,5.17
2019-03-15T11:30:27.170Z,5.87
2019-03-15T11:35:32.693Z,6.00
2019-03-15T11:40:38.277Z,6.57
2019-03-15T11:45:44.005Z,5.77
2019-03-15T11:50:49.455Z,6.20
2019-03-15T11:55:54.954Z,4.97
2019-03-15T12:01:00.477Z,6.33
2019-03-15T12:06:06.120Z,5.87
2019-03-15T12:11:11.578Z,5.00
2019-03-15T12:16:17.298Z,5.53
2019-03-15T12:21:22.931Z,7.87
2019-03-15T12:26:39.753Z,7.93
2019-03-15T12:31:35.662Z,6.97
2019-03-15T12:36:41.146Z,6.63
2019-03-15T12:41:46.749Z,5.83
2019-03-15T12:46:52.274Z,7.37
2019-03-15T12:51:57.752Z,7.70
2019-03-15T12:57:03.384Z,8.27
2019-03-15T13:02:08.896Z,11.93
2019-03-15T13:07:14.387Z,8.57
2019-03-15T13:12:19.882Z,10.93
2019-03-15T13:17:25.353Z,10.37
2019-03-15T13:22:30.885Z,8.13
2019-03-15T13:27:36.398Z,7.97
2019-03-15T13:32:43.432Z,7.70
2019-03-15T13:37:49.039Z,8.90
2019-03-15T13:42:54.530Z,6.30
2019-03-15T13:48:00.015Z,7.93
2019-03-15T13:53:05.557Z,9.53
2019-03-15T13:58:11.100Z,8.60
2019-03-15T14:03:16.707Z,6.90
2019-03-15T14:08:22.288Z,7.37
2019-03-15T14:13:27.942Z,4.73
2019-03-15T14:18:33.437Z,8.37
2019-03-15T14:23:39.194Z,7.83
2019-03-15T14:28:44.864Z,7.43
2019-03-15T14:33:50.526Z,7.03
2019-03-15T14:38:56.056Z,5.80
2019-03-15T14:44:01.785Z,4.77
2019-03-15T14:49:07.597Z,7.90
2019-03-15T14:54:13.152Z,5.70
2019-03-15T14:59:19.126Z,6.77
2019-03-15T15:04:25.068Z,4.23
2019-03-15T15:09:30.952Z,6.60
2019-03-15T15:14:36.436Z,7.47
2019-03-15T15:19:41.931Z,5.03
2019-03-15T15:24:47.454Z,5.93
2019-03-15T15:29:52.957Z,7.53
2019-03-15T15:34:58.411Z,3.80
2019-03-15T15:40:03.997Z,6.63
2019-03-15T15:45:17.504Z,5.30
2019-03-15T15:50:23.077Z,7.57
2019-03-15T15:55:28.708Z,5.13
2019-03-15T16:00:34.193Z,4.90
2019-03-15T16:05:39.738Z,7.10
2019-03-15T16:10:45.251Z,6.37
2019-03-15T16:15:50.897Z,4.67
2019-03-15T16:20:56.423Z,6.90
2019-03-15T16:26:01.932Z,4.57
2019-03-15T16:31:07.668Z,5.87
2019-03-15T16:36:13.149Z,3.33
2019-03-15T16:41:18.657Z,5.50
2019-03-15T16:46:24.181Z,4.23
2019-03-15T16:51:29.660Z,2.77
2019-03-15T16:56:35.224Z,2.53
2019-03-15T17:01:40.687Z,2.73
2019-03-15T17:06:46.258Z,3.53
2019-03-15T17:11:51.760Z,4.93
2019-03-15T17:16:57.299Z,3.53
2019-03-15T17:22:02.829Z,3.83
2019-03-15T17:27:08.447Z,4.20
2019-03-15T17:32:14.015Z,2.87
2019-03-15T17:37:19.588Z,1.93
2019-03-15T17:42:25.326Z,2.00
2019-03-15T17:47:30.970Z,5.27
2019-03-15T17:52:36.495Z,2.60
2019-03-15T17:57:45.329Z,2.13
2019-03-15T18:02:49.309Z,3.00
2019-03-15T18:07:54.873Z,3.57
2019-03-15T18:13:00.400Z,3.97
2019-03-15T18:18:05.916Z,3.50
2019-03-15T18:23:11.496Z,3.33
2019-03-15T18:28:17.066Z,2.53
2019-03-15T18:33:22.569Z,2.47
2019-03-15T18:38:28.379Z,2.63
2019-03-15T18:43:33.857Z,3.10
2019-03-15T18:48:39.421Z,1.80
2019-03-15T18:53:44.919Z,3.03
2019-03-15T18:58:50.438Z,3.80
2019-03-15T19:03:56.203Z,6.60
2019-03-15T19:09:02.087Z,2.87
2019-03-15T19:14:07.667Z,2.47
2019-03-15T19:19:13.148Z,3.70
2019-03-15T19:24:18.673Z,3.17
2019-03-15T19:29:24.429Z,4.47
2019-03-15T19:34:29.914Z,2.77
2019-03-15T19:39:35.424Z,4.20
2019-03-15T19:44:40.974Z,4.50
2019-03-15T19:49:46.577Z,5.60
2019-03-15T19:55:00.267Z,4.63
2019-03-15T20:00:07.790Z,3.93
2019-03-15T20:05:06.729Z,5.40
2019-03-15T20:10:16.163Z,7.03
2019-03-15T20:15:20.239Z,2.73
2019-03-15T20:20:25.728Z,3.27
2019-03-15T20:25:31.250Z,3.10
2019-03-15T20:30:36.726Z,6.13
2019-03-15T20:35:42.193Z,6.97
2019-03-15T20:40:47.731Z,4.93
2019-03-15T20:45:53.417Z,4.57
2019-03-15T20:50:59.051Z,6.03
2019-03-15T20:56:04.501Z,9.10
2019-03-15T21:01:10.047Z,7.87
2019-03-15T21:06:15.573Z,8.47
2019-03-15T21:11:21.047Z,7.10
2019-03-15T21:16:26.554Z,13.27
2019-03-15T21:21:32.022Z,10.47
2019-03-15T21:26:37.535Z,9.00
2019-03-15T21:31:43.078Z,9.87
2019-03-15T21:36:48.622Z,11.00
2019-03-15T21:41:54.211Z,14.10
2019-03-15T21:46:59.730Z,13.67
2019-03-15T21:52:05.317Z,9.67
2019-03-15T21:57:10.802Z,11.33
2019-03-15T22:02:16.507Z,9.77
2019-03-15T22:07:21.975Z,10.10
2019-03-15T22:12:27.498Z,8.10
2019-03-15T22:17:33.016Z,14.90
2019-03-15T22:22:38.496Z,12.80
2019-03-15T22:27:49.980Z,12.13
2019-03-15T22:32:54.091Z,10.10
2019-03-15T22:37:59.592Z,11.57
2019-03-15T22:43:05.125Z,7.60
2019-03-15T22:48:10.639Z,10.33
2019-03-15T22:53:16.185Z,10.30
2019-03-15T22:58:21.677Z,12.23
2019-03-15T23:03:27.325Z,10.50
2019-03-15T23:08:32.845Z,10.93
2019-03-15T23:13:38.395Z,13.60
2019-03-15T23:18:43.862Z,11.37
2019-03-15T23:23:49.387Z,10.10
2019-03-15T23:28:54.875Z,14.93
2019-03-15T23:34:00.348Z,12.93
2019-03-15T23:39:07.220Z,8.80
2019-03-15T23:44:12.703Z,7.43
2019-03-15T23:49:18.228Z,10.70
2019-03-15T23:54:23.721Z,9.37
2019-03-15T23:59:29.233Z,10.20
